Time;durP1;ratioP1;P1;durP2;ratioP2;P2;SDS_P1;SDS_P2;PMS_P1;PMS_P2;Temp;Humidity;BMP_temperature;BMP_pressure;BME280_temperature;BME280_humidity;BME280_pressure;Samples;Min_cycle;Max_cycle;Signal;HPM_P1;HPM_P2
2023/06/15 00:00:58;;;;;;;7.80;4.63;;;;;;;;;;6149986;23;20017;-78
2023/06/15 00:03:25;;;;;;;7.10;4.57;;;;;;;;;;6150320;23;20037;-78
2023/06/15 00:06:00;;;;;;;6.82;4.22;;;;;;;;;;6149401;23;20076;-78
2023/06/15 00:08:27;;;;;;;;;;;;;;;;;;6124473;23;20022;-78
2023/06/15 00:11:02;;;;;;;10.63;4.45;;;;;;;;;;6149763;23;19916;-78
2023/06/15 00:13:29;;;;;;;5.88;3.90;;;;;;;;;;6147985;23;20447;-77
2023/06/15 00:15:57;;;;;;;6.63;3.80;;;;;;;;;;6148191;23;20100;-78
2023/06/15 00:18:32;;;;;;;6.65;4.07;;;;;;;;;;6150054;23;20029;-77
2023/06/15 00:21:00;;;;;;;8.82;4.35;;;;;;;;;;6148703;23;20023;-77
2023/06/15 00:23:34;;;;;;;6.60;4.55;;;;;;;;;;6124628;23;20025;-77
2023/06/15 00:26:02;;;;;;;9.43;4.70;;;;;;;;;;6123379;23;20049;-77
2023/06/15 00:28:29;;;;;;;5.63;4.68;;;;;;;;;;6148828;23;20610;-77
2023/06/15 00:31:03;;;;;;;9.07;4.93;;;;;;;;;;6148273;23;20033;-78
2023/06/15 00:33:31;;;;;;;6.50;4.85;;;;;;;;;;6149411;23;20025;-78
2023/06/15 00:36:07;;;;;;;8.80;4.78;;;;;;;;;;6147859;23;20060;-78
2023/06/15 00:38:35;;;;;;;8.85;4.38;;;;;;;;;;6149066;23;20034;-78
2023/06/15 00:41:02;;;;;;;8.23;4.68;;;;;;;;;;6148982;23;20021;-78
2023/06/15 00:43:36;;;;;;;7.65;4.40;;;;;;;;;;6147374;23;20586;-78
2023/06/15 00:46:04;;;;;;;6.80;4.75;;;;;;;;;;6148033;23;20060;-78
2023/06/15 00:48:44;;;;;;;5.80;4.55;;;;;;;;;;6150184;23;20044;-78
2023/06/15 00:51:11;;;;;;;6.43;4.53;;;;;;;;;;6146661;23;20021;-77
2023/06/15 00:53:46;;;;;;;5.78;4.45;;;;;;;;;;6125274;23;20386;-78
2023/06/15 00:56:16;;;;;;;7.15;5.03;;;;;;;;;;6148175;23;20025;-77
2023/06/15 00:58:44;;;;;;;6.93;4.80;;;;;;;;;;6148908;23;20030;-78
2023/06/15 01:01:18;;;;;;;8.90;5.05;;;;;;;;;;6149753;23;20033;-77
2023/06/15 01:03:46;;;;;;;;;;;;;;;;;;6123000;23;20029;-78
2023/06/15 01:06:19;;;;;;;6.95;4.97;;;;;;;;;;6149602;23;19920;-79
2023/06/15 01:08:52;;;;;;;10.63;4.60;;;;;;;;;;6148144;23;20550;-78
2023/06/15 01:11:26;;;;;;;6.13;4.60;;;;;;;;;;6146392;23;20026;-79
2023/06/15 01:13:58;;;;;;;10.65;5.00;;;;;;;;;;6149739;23;20021;-78
2023/06/15 01:16:33;;;;;;;5.47;4.35;;;;;;;;;;6119494;23;20460;-78
2023/06/15 01:19:13;;;;;;;5.90;4.53;;;;;;;;;;6149010;23;20029;-78
2023/06/15 01:21:41;;;;;;;11.18;4.72;;;;;;;;;;6149567;23;20017;-78
2023/06/15 01:24:25;;;;;;;8.50;4.68;;;;;;;;;;6148180;23;20498;-78
2023/06/15 01:26:53;;;;;;;7.55;4.40;;;;;;;;;;6146550;23;20022;-77
2023/06/15 01:29:29;;;;;;;6.93;4.53;;;;;;;;;;6147145;23;20076;-78
2023/06/15 01:31:57;;;;;;;11.43;4.85;;;;;;;;;;6148137;23;20414;-78
2023/06/15 01:34:31;;;;;;;9.57;4.45;;;;;;;;;;6148563;23;20033;-78
2023/06/15 01:36:59;;;;;;;10.00;4.88;;;;;;;;;;6148494;23;20522;-78
2023/06/15 01:39:32;;;;;;;9.35;4.57;;;;;;;;;;6149221;23;20051;-78
2023/06/15 01:42:00;;;;;;;10.48;5.30;;;;;;;;;;6148065;23;20104;-78
2023/06/15 01:44:27;;;;;;;;;;;;;;;;;;6148911;23;20028;-78
2023/06/15 01:47:09;;;;;;;8.30;5.57;;;;;;;;;;6146720;23;19921;-78
2023/06/15 01:49:36;;;;;;;10.32;5.38;;;;;;;;;;6148625;23;20026;-78
2023/06/15 01:52:10;;;;;;;10.77;5.35;;;;;;;;;;6149666;23;20080;-78
2023/06/15 01:54:37;;;;;;;10.57;5.72;;;;;;;;;;6150139;23;20029;-77
2023/06/15 01:57:06;;;;;;;10.75;5.57;;;;;;;;;;6150048;23;20308;-78
2023/06/15 01:59:40;;;;;;;10.98;5.88;;;;;;;;;;6149577;23;20482;-78
2023/06/15 02:02:08;;;;;;;10.23;5.35;;;;;;;;;;6149227;23;20037;-77
2023/06/15 02:04:42;;;;;;;15.85;5.97;;;;;;;;;;6124019;23;20022;-78
2023/06/15 02:07:09;;;;;;;6.22;5.20;;;;;;;;;;6124481;23;20069;-77
2023/06/15 02:09:36;;;;;;;9.82;5.18;;;;;;;;;;6150533;23;20049;-77
2023/06/15 02:12:10;;;;;;;12.35;5.63;;;;;;;;;;6150781;23;20029;-78
2023/06/15 02:14:38;;;;;;;8.30;6.22;;;;;;;;;;6151355;23;20044;-77
2023/06/15 02:17:11;;;;;;;8.95;6.05;;;;;;;;;;6150248;23;20025;-78
2023/06/15 02:19:38;;;;;;;10.75;5.68;;;;;;;;;;6147188;23;20068;-77
2023/06/15 02:22:06;;;;;;;11.98;5.32;;;;;;;;;;6148858;23;20143;-78
2023/06/15 02:24:40;;;;;;;17.10;5.70;;;;;;;;;;6150608;23;20578;-78
2023/06/15 02:27:08;;;;;;;9.00;5.90;;;;;;;;;;6149820;23;20083;-78
2023/06/15 02:29:42;;;;;;;14.02;5.97;;;;;;;;;;6149966;23;20020;-78
2023/06/15 02:32:10;;;;;;;14.38;5.85;;;;;;;;;;6150145;23;20479;-78
2023/06/15 02:34:37;;;;;;;8.65;4.95;;;;;;;;;;6151780;23;20022;-77
2023/06/15 02:37:10;;;;;;;9.55;5.40;;;;;;;;;;6149256;23;20080;-77
2023/06/15 02:39:37;;;;;;;6.65;4.95;;;;;;;;;;6124836;23;20022;-78
2023/06/15 02:42:11;;;;;;;12.85;5.35;;;;;;;;;;6150146;23;20072;-76
2023/06/15 02:44:38;;;;;;;8.25;5.18;;;;;;;;;;6150417;23;20479;-77
2023/06/15 02:47:06;;;;;;;8.25;5.50;;;;;;;;;;6146943;23;20049;-78
2023/06/15 02:49:39;;;;;;;10.07;5.47;;;;;;;;;;6146398;23;20087;-78
2023/06/15 02:52:07;;;;;;;10.88;5.95;;;;;;;;;;6150122;23;20092;-77
2023/06/15 02:54:40;;;;;;;13.38;5.53;;;;;;;;;;6149709;23;20025;-77
2023/06/15 02:57:08;;;;;;;8.65;5.15;;;;;;;;;;6149996;23;20021;-78
2023/06/15 02:59:36;;;;;;;10.38;5.50;;;;;;;;;;6148908;23;20386;-77
2023/06/15 03:02:11;;;;;;;13.48;5.32;;;;;;;;;;6151089;23;20025;-78
2023/06/15 03:04:44;;;;;;;12.35;5.85;;;;;;;;;;6149962;23;20497;-77
2023/06/15 03:07:20;;;;;;;7.07;5.22;;;;;;;;;;6147673;23;20082;-78
2023/06/15 03:09:47;;;;;;;7.65;5.13;;;;;;;;;;6124785;23;20052;-77
2023/06/15 03:12:15;;;;;;;8.23;5.07;;;;;;;;;;6150586;23;20484;-78
2023/06/15 03:14:52;;;;;;;6.07;4.53;;;;;;;;;;6149667;23;20425;-78
2023/06/15 03:17:29;;;;;;;8.48;4.75;;;;;;;;;;6149825;23;20072;-77
2023/06/15 03:19:56;;;;;;;8.07;4.75;;;;;;;;;;6149979;23;20025;-78
2023/06/15 03:22:25;;;;;;;7.30;4.78;;;;;;;;;;6150981;23;20027;-78
2023/06/15 03:24:59;;;;;;;7.70;5.13;;;;;;;;;;6151634;23;20032;-78
2023/06/15 03:27:26;;;;;;;10.20;5.30;;;;;;;;;;6122844;23;20025;-78
2023/06/15 03:30:01;;;;;;;5.78;5.18;;;;;;;;;;6150111;23;20498;-78
2023/06/15 03:32:29;;;;;;;7.07;4.43;;;;;;;;;;6149515;23;20369;-77
2023/06/15 03:34:57;;;;;;;10.75;5.35;;;;;;;;;;6154908;23;20036;-77
2023/06/15 03:37:31;;;;;;;7.90;4.82;;;;;;;;;;6153136;23;20025;-77
2023/06/15 03:39:59;;;;;;;7.78;4.53;;;;;;;;;;6150754;23;20027;-77
2023/06/15 03:42:33;;;;;;;9.15;5.53;;;;;;;;;;6150537;23;20029;-77
2023/06/15 03:45:00;;;;;;;6.07;5.40;;;;;;;;;;6151109;23;20017;-77
2023/06/15 03:47:27;;;;;;;6.25;4.78;;;;;;;;;;6149795;23;20119;-78
2023/06/15 03:50:01;;;;;;;10.50;4.93;;;;;;;;;;6148278;23;20021;-78
2023/06/15 03:52:32;;;;;;;6.10;4.50;;;;;;;;;;6123350;23;20087;-78
2023/06/15 03:55:06;;;;;;;6.00;4.75;;;;;;;;;;6151109;23;20025;-78
2023/06/15 03:57:34;;;;;;;14.52;5.25;;;;;;;;;;6148777;23;20126;-77
2023/06/15 04:00:04;;;;;;;9.07;5.18;;;;;;;;;;6150245;23;20022;-78
2023/06/15 04:02:38;;;;;;;6.60;5.18;;;;;;;;;;6147798;23;20479;-78
2023/06/15 04:05:06;;;;;;;8.60;5.22;;;;;;;;;;6150333;23;20037;-79
2023/06/15 04:07:43;;;;;;;5.43;4.90;;;;;;;;;;6148132;23;20076;-78
2023/06/15 04:10:12;;;;;;;7.28;4.85;;;;;;;;;;6148499;23;20025;-77
2023/06/15 04:12:39;;;;;;;7.25;4.65;;;;;;;;;;6149089;23;20402;-78
2023/06/15 04:15:13;;;;;;;6.40;5.05;;;;;;;;;;6150341;23;20022;-80
2023/06/15 04:17:41;;;;;;;6.10;4.57;;;;;;;;;;6147326;23;20471;-79
2023/06/15 04:20:15;;;;;;;5.15;4.47;;;;;;;;;;6122112;23;20021;-79
2023/06/15 04:22:45;;;;;;;6.45;5.38;;;;;;;;;;6148361;23;20644;-79
2023/06/15 04:25:12;;;;;;;8.00;5.32;;;;;;;;;;6146058;23;20025;-79
2023/06/15 04:27:46;;;;;;;6.10;5.13;;;;;;;;;;6147344;23;20099;-79
2023/06/15 04:30:16;;;;;;;;;;;;;;;;;;6147642;23;20018;-79
2023/06/15 04:32:44;;;;;;;8.38;4.47;;;;;;;;;;6147045;23;20290;-79
2023/06/15 04:35:20;;;;;;;6.63;5.07;;;;;;;;;;6144810;23;20080;-79
2023/06/15 04:37:48;;;;;;;25.77;6.20;;;;;;;;;;6120350;23;20080;-79
2023/06/15 04:40:21;;;;;;;15.73;5.13;;;;;;;;;;6113875;23;20045;-79
2023/06/15 04:42:48;;;;;;;16.02;5.35;;;;;;;;;;6146301;23;20402;-79
2023/06/15 04:45:22;;;;;;;16.52;5.63;;;;;;;;;;6147200;23;20031;-79
2023/06/15 04:47:56;;;;;;;10.40;4.60;;;;;;;;;;6148407;23;20053;-77
2023/06/15 04:50:31;;;;;;;11.23;5.10;;;;;;;;;;6148213;23;20095;-79
2023/06/15 04:52:58;;;;;;;;;;;;;;;;;;6122228;23;20022;-79
2023/06/15 04:55:25;;;;;;;9.82;5.47;;;;;;;;;;6149594;23;19931;-79
2023/06/15 04:58:01;;;;;;;11.88;5.32;;;;;;;;;;6148320;23;20100;-79
2023/06/15 05:00:29;;;;;;;10.38;5.40;;;;;;;;;;6149412;23;20033;-79
2023/06/15 05:03:03;;;;;;;8.55;5.18;;;;;;;;;;6149657;23;20092;-79
2023/06/15 05:05:30;;;;;;;9.73;5.43;;;;;;;;;;6148232;23;20049;-78
2023/06/15 05:07:57;;;;;;;10.70;5.57;;;;;;;;;;6148905;23;20029;-78
2023/06/15 05:10:31;;;;;;;6.85;5.45;;;;;;;;;;6149258;23;20525;-79
2023/06/15 05:13:12;;;;;;;8.30;5.15;;;;;;;;;;6149199;23;20028;-78
2023/06/15 05:15:45;;;;;;;7.20;5.25;;;;;;;;;;6149924;23;20029;-78
2023/06/15 05:18:13;;;;;;;12.02;5.40;;;;;;;;;;6148700;23;20632;-79
2023/06/15 05:20:40;;;;;;;9.40;5.05;;;;;;;;;;6149693;23;20064;-78
2023/06/15 05:23:14;;;;;;;8.27;5.10;;;;;;;;;;6148166;23;20021;-78
2023/06/15 05:25:42;;;;;;;11.70;5.57;;;;;;;;;;6149017;23;20031;-78
2023/06/15 05:28:17;;;;;;;7.07;5.50;;;;;;;;;;6149072;23;20467;-78
2023/06/15 05:30:44;;;;;;;7.43;5.50;;;;;;;;;;6149509;23;20481;-78
2023/06/15 05:33:12;;;;;;;;;;;;;;;;;;6149849;23;20080;-78
2023/06/15 05:35:46;;;;;;;8.15;5.22;;;;;;;;;;6124601;23;19991;-79
2023/06/15 05:38:13;;;;;;;;;;;;;;;;;;6148561;23;20029;-79
2023/06/15 05:40:47;;;;;;;8.25;5.30;;;;;;;;;;6149982;23;19971;-79
2023/06/15 05:43:14;;;;;;;11.27;5.15;;;;;;;;;;6150934;23;20466;-78
2023/06/15 05:45:41;;;;;;;8.30;5.50;;;;;;;;;;6152368;23;20022;-78
2023/06/15 05:48:28;;;;;;;10.48;5.43;;;;;;;;;;6150772;23;20522;-78
2023/06/15 05:50:55;;;;;;;7.70;5.30;;;;;;;;;;6150043;23;20100;-79
2023/06/15 05:53:30;;;;;;;11.50;6.38;;;;;;;;;;6150593;23;20087;-79
2023/06/15 05:55:57;;;;;;;;;;;;;;;;;;6151275;23;20767;-79
2023/06/15 05:58:24;;;;;;;10.90;5.90;;;;;;;;;;6148329;23;19926;-78
2023/06/15 06:00:58;;;;;;;12.02;6.30;;;;;;;;;;6151619;23;20026;-79
2023/06/15 06:03:26;;;;;;;11.35;6.32;;;;;;;;;;6123776;23;20028;-78
2023/06/15 06:06:02;;;;;;;7.88;6.03;;;;;;;;;;6150096;23;20463;-79
2023/06/15 06:08:29;;;;;;;8.50;5.85;;;;;;;;;;6150350;23;20025;-79
2023/06/15 06:10:57;;;;;;;;;;;;;;;;;;6150301;23;20029;-79
2023/06/15 06:13:30;;;;;;;11.82;6.63;;;;;;;;;;6151023;23;20301;-78
2023/06/15 06:15:58;;;;;;;11.40;5.75;;;;;;;;;;6151603;23;20398;-79
2023/06/15 06:18:31;;;;;;;9.50;6.00;;;;;;;;;;6149917;23;20028;-79
2023/06/15 06:21:02;;;;;;;10.93;5.72;;;;;;;;;;6149617;23;20169;-79
2023/06/15 06:23:29;;;;;;;10.95;6.45;;;;;;;;;;6150339;23;20029;-79
2023/06/15 06:26:02;;;;;;;9.30;5.70;;;;;;;;;;6124698;23;20029;-78
2023/06/15 06:28:30;;;;;;;8.27;5.57;;;;;;;;;;6150039;23;20025;-80
2023/06/15 06:31:03;;;;;;;8.77;5.65;;;;;;;;;;6150860;23;20029;-80
2023/06/15 06:33:31;;;;;;;8.98;5.85;;;;;;;;;;6149131;23;20084;-79
2023/06/15 06:35:58;;;;;;;9.85;5.97;;;;;;;;;;6124192;23;20073;-79
2023/06/15 06:38:31;;;;;;;10.40;6.43;;;;;;;;;;6150498;23;20234;-79
2023/06/15 06:40:59;;;;;;;8.48;5.90;;;;;;;;;;6124646;23;20324;-79
2023/06/15 06:43:32;;;;;;;10.00;6.07;;;;;;;;;;6151043;23;20029;-79
2023/06/15 06:46:00;;;;;;;10.20;5.80;;;;;;;;;;6151124;23;20510;-80
2023/06/15 06:48:33;;;;;;;8.63;5.85;;;;;;;;;;6148656;23;20375;-79
2023/06/15 06:51:07;;;;;;;10.10;6.57;;;;;;;;;;6150600;23;20406;-79
2023/06/15 06:53:35;;;;;;;7.25;5.30;;;;;;;;;;6150853;23;20059;-79
2023/06/15 06:56:02;;;;;;;10.82;5.72;;;;;;;;;;6149508;23;20029;-79
2023/06/15 06:58:36;;;;;;;9.02;6.22;;;;;;;;;;6150999;23;20024;-79
2023/06/15 07:01:04;;;;;;;10.65;5.65;;;;;;;;;;6150498;23;20056;-80
2023/06/15 07:03:39;;;;;;;7.82;5.65;;;;;;;;;;6150762;23;20072;-80
2023/06/15 07:06:06;;;;;;;9.80;5.55;;;;;;;;;;6150460;23;20033;-81
2023/06/15 07:08:33;;;;;;;11.13;5.53;;;;;;;;;;6151691;23;20024;-81
2023/06/15 07:11:07;;;;;;;11.73;5.35;;;;;;;;;;6150996;23;20096;-80
2023/06/15 07:13:35;;;;;;;11.77;5.60;;;;;;;;;;6150474;23;20029;-79
2023/06/15 07:16:09;;;;;;;9.07;6.13;;;;;;;;;;6150060;23;20057;-80
2023/06/15 07:18:36;;;;;;;11.73;6.13;;;;;;;;;;6123060;23;20076;-79
2023/06/15 07:21:03;;;;;;;9.02;5.70;;;;;;;;;;6148361;23;20410;-80
2023/06/15 07:23:37;;;;;;;8.38;6.07;;;;;;;;;;6149388;23;20533;-80
2023/06/15 07:26:19;;;;;;;9.63;5.53;;;;;;;;;;6150744;23;20025;-80
2023/06/15 07:28:52;;;;;;;10.70;5.47;;;;;;;;;;6149815;23;20048;-81
2023/06/15 07:31:20;;;;;;;7.88;5.63;;;;;;;;;;6124689;23;20025;-80
2023/06/15 07:33:54;;;;;;;12.45;5.72;;;;;;;;;;6148904;23;20029;-80
2023/06/15 07:36:21;;;;;;;;;;;;;;;;;;6149930;23;20329;-80
2023/06/15 07:38:48;;;;;;;13.23;6.15;;;;;;;;;;6149442;23;20409;-81
2023/06/15 07:41:22;;;;;;;11.68;6.00;;;;;;;;;;6121966;23;20084;-80
2023/06/15 07:43:49;;;;;;;7.63;5.20;;;;;;;;;;6149953;23;20029;-80
2023/06/15 07:46:29;;;;;;;6.80;5.15;;;;;;;;;;6148622;23;20025;-80
2023/06/15 07:49:03;;;;;;;14.30;6.20;;;;;;;;;;6148986;23;20073;-80
2023/06/15 07:51:37;;;;;;;8.57;5.50;;;;;;;;;;6124646;23;20363;-80
2023/06/15 07:54:20;;;;;;;7.78;5.40;;;;;;;;;;6148912;23;20040;-80
2023/06/15 07:56:55;;;;;;;8.23;5.22;;;;;;;;;;6125808;23;20053;-81
2023/06/15 07:59:22;;;;;;;7.00;5.35;;;;;;;;;;6149953;23;20076;-81
2023/06/15 08:01:50;;;;;;;;;;;;;;;;;;6150468;23;20099;-80
2023/06/15 08:04:24;;;;;;;7.82;5.32;;;;;;;;;;6148220;23;19921;-80
2023/06/15 08:06:51;;;;;;;;;;;;;;;;;;6150151;23;20025;-80
2023/06/15 08:09:25;;;;;;;12.82;5.50;;;;;;;;;;6149233;23;19920;-80
2023/06/15 08:11:52;;;;;;;8.25;5.05;;;;;;;;;;6123250;23;20030;-80
2023/06/15 08:14:19;;;;;;;9.10;5.10;;;;;;;;;;6123868;23;20025;-81
2023/06/15 08:16:53;;;;;;;9.88;5.20;;;;;;;;;;6125224;23;20048;-80
2023/06/15 08:19:21;;;;;;;6.72;5.07;;;;;;;;;;6149666;23;20404;-81
2023/06/15 08:21:54;;;;;;;7.90;4.90;;;;;;;;;;6149565;23;20026;-80
2023/06/15 08:24:22;;;;;;;12.23;4.78;;;;;;;;;;6149819;23;20455;-81
2023/06/15 08:26:49;;;;;;;;;;;;;;;;;;6150564;23;20054;-82
2023/06/15 08:29:22;;;;;;;9.02;4.30;;;;;;;;;;6150542;23;19916;-82
2023/06/15 08:31:51;;;;;;;7.47;5.10;;;;;;;;;;6148253;23;20596;-83
2023/06/15 08:34:18;;;;;;;7.03;4.78;;;;;;;;;;6148755;23;20026;-82
2023/06/15 08:36:52;;;;;;;8.98;4.53;;;;;;;;;;6149360;23;20737;-82
2023/06/15 08:39:21;;;;;;;;;;;;;;;;;;6149691;23;20363;-82
2023/06/15 08:41:55;;;;;;;6.15;4.53;;;;;;;;;;6149406;23;20231;-83
2023/06/15 08:44:23;;;;;;;6.75;4.70;;;;;;;;;;6149542;23;20029;-82
2023/06/15 08:46:51;;;;;;;6.28;4.43;;;;;;;;;;6144960;23;20029;-82
2023/06/15 08:49:31;;;;;;;5.03;4.35;;;;;;;;;;6125329;23;20032;-81
2023/06/15 08:51:59;;;;;;;6.95;4.70;;;;;;;;;;6149595;23;20048;-83
2023/06/15 08:54:35;;;;;;;9.18;4.72;;;;;;;;;;6148908;23;20022;-81
2023/06/15 08:57:02;;;;;;;8.07;4.82;;;;;;;;;;6148704;23;20036;-82
2023/06/15 08:59:37;;;;;;;7.15;4.40;;;;;;;;;;6148774;23;20021;-81
2023/06/15 09:02:06;;;;;;;5.68;4.65;;;;;;;;;;6146669;23;20025;-83
2023/06/15 09:04:33;;;;;;;5.85;4.22;;;;;;;;;;6150391;23;20076;-82
2023/06/15 09:07:07;;;;;;;9.45;4.70;;;;;;;;;;6150261;23;20028;-81
2023/06/15 09:09:35;;;;;;;8.18;4.60;;;;;;;;;;6148836;23;20052;-83
2023/06/15 09:12:18;;;;;;;13.20;4.75;;;;;;;;;;6147728;23;20025;-81
2023/06/15 09:14:45;;;;;;;6.00;4.40;;;;;;;;;;6124563;23;20026;-82
2023/06/15 09:17:27;;;;;;;4.60;4.20;;;;;;;;;;6124858;23;20036;-81
2023/06/15 09:19:54;;;;;;;6.88;4.45;;;;;;;;;;6122603;23;20129;-80
2023/06/15 09:22:29;;;;;;;9.85;4.80;;;;;;;;;;6148403;23;20026;-83
2023/06/15 09:24:56;;;;;;;6.97;4.85;;;;;;;;;;6148710;23;20061;-83
2023/06/15 09:27:23;;;;;;;8.93;4.47;;;;;;;;;;6148552;23;20032;-82
2023/06/15 09:30:05;;;;;;;8.57;4.45;;;;;;;;;;6149868;23;20076;-82
2023/06/15 09:32:33;;;;;;;9.65;4.57;;;;;;;;;;6149324;23;20022;-83
2023/06/15 09:35:08;;;;;;;10.57;4.88;;;;;;;;;;6148972;23;20030;-80
2023/06/15 09:37:37;;;;;;;6.43;4.80;;;;;;;;;;6147492;23;20021;-79
2023/06/15 09:40:05;;;;;;;5.60;4.80;;;;;;;;;;6147956;23;20030;-81
2023/06/15 09:42:40;;;;;;;6.05;4.65;;;;;;;;;;6148643;23;20025;-81
2023/06/15 09:45:08;;;;;;;7.82;4.55;;;;;;;;;;6123149;23;20029;-79
2023/06/15 09:47:56;;;;;;;10.02;4.90;;;;;;;;;;6149557;23;20026;-81
2023/06/15 09:50:30;;;;;;;10.80;4.38;;;;;;;;;;6148507;23;20072;-80
2023/06/15 09:53:04;;;;;;;8.27;4.30;;;;;;;;;;6148712;23;20399;-82
2023/06/15 09:55:32;;;;;;;5.30;4.15;;;;;;;;;;6148663;23;20451;-81
2023/06/15 09:58:06;;;;;;;7.22;3.80;;;;;;;;;;6149560;23;20080;-82
2023/06/15 10:00:36;;;;;;;8.65;4.25;;;;;;;;;;6147436;23;20030;-82
2023/06/15 10:03:06;;;;;;;9.07;4.25;;;;;;;;;;6123372;23;20080;-81
2023/06/15 10:05:43;;;;;;;6.78;4.53;;;;;;;;;;6148387;23;20533;-81
2023/06/15 10:08:11;;;;;;;6.25;4.43;;;;;;;;;;6147737;23;20021;-81
2023/06/15 10:10:46;;;;;;;10.45;4.40;;;;;;;;;;6124134;23;20371;-81
2023/06/15 10:13:26;;;;;;;5.88;3.83;;;;;;;;;;6123781;23;20018;-81
2023/06/15 10:16:01;;;;;;;12.40;3.97;;;;;;;;;;6147822;23;20025;-82
2023/06/15 10:18:30;;;;;;;8.05;4.15;;;;;;;;;;6146281;23;20030;-82
2023/06/15 10:20:58;;;;;;;22.95;4.65;;;;;;;;;;6147665;23;20022;-82
2023/06/15 10:23:33;;;;;;;12.63;4.50;;;;;;;;;;6147958;23;20022;-83
2023/06/15 10:26:09;;;;;;;7.35;4.07;;;;;;;;;;6147483;23;20374;-81
2023/06/15 10:28:52;;;;;;;8.85;3.60;;;;;;;;;;6149995;23;20084;-83
2023/06/15 10:31:23;;;;;;;8.45;4.07;;;;;;;;;;6150324;23;20028;-82
2023/06/15 10:34:04;;;;;;;6.65;3.60;;;;;;;;;;6150479;23;20332;-83
2023/06/15 10:36:43;;;;;;;10.05;4.25;;;;;;;;;;6151048;23;20022;-83
2023/06/15 10:39:22;;;;;;;6.63;4.03;;;;;;;;;;6150475;23;20084;-82
2023/06/15 10:42:00;;;;;;;5.38;4.00;;;;;;;;;;6149894;23;20025;-82
2023/06/15 10:44:34;;;;;;;6.53;3.80;;;;;;;;;;6150486;23;20390;-83
2023/06/15 10:47:26;;;;;;;6.10;4.40;;;;;;;;;;6148343;23;20029;-84
2023/06/15 10:50:01;;;;;;;4.57;3.88;;;;;;;;;;6147822;23;20029;-84
2023/06/15 10:52:36;;;;;;;8.82;4.30;;;;;;;;;;6150136;23;20483;-83
2023/06/15 10:55:10;;;;;;;10.32;4.25;;;;;;;;;;6147623;23;20099;-81
2023/06/15 10:57:37;;;;;;;5.40;3.83;;;;;;;;;;6147391;23;20030;-83
2023/06/15 11:00:04;;;;;;;11.90;3.75;;;;;;;;;;6150555;23;20022;-84
2023/06/15 11:02:45;;;;;;;8.13;4.30;;;;;;;;;;6149977;23;20022;-83
2023/06/15 11:05:14;;;;;;;5.68;4.22;;;;;;;;;;6150119;23;20029;-81
2023/06/15 11:07:50;;;;;;;7.38;4.75;;;;;;;;;;6149418;23;20060;-83
2023/06/15 11:10:37;;;;;;;5.18;3.90;;;;;;;;;;6124589;23;20017;-84
2023/06/15 11:13:23;;;;;;;7.40;4.68;;;;;;;;;;6150798;23;20025;-83
2023/06/15 11:16:05;;;;;;;7.00;4.63;;;;;;;;;;6149303;23;20025;-84
2023/06/15 11:18:55;;;;;;;5.97;4.13;;;;;;;;;;6149697;23;20040;-83
2023/06/15 11:21:29;;;;;;;15.13;4.78;;;;;;;;;;6149823;23;20044;-84
2023/06/15 11:24:03;;;;;;;7.75;4.10;;;;;;;;;;6147142;23;20025;-84
2023/06/15 11:26:31;;;;;;;5.45;4.18;;;;;;;;;;6148089;23;20029;-82
2023/06/15 11:29:07;;;;;;;7.55;4.57;;;;;;;;;;6150273;23;20017;-84
2023/06/15 11:31:35;;;;;;;7.45;4.20;;;;;;;;;;6149421;23;20030;-83
2023/06/15 11:34:02;;;;;;;7.35;4.15;;;;;;;;;;6151767;23;20088;-83
2023/06/15 11:36:37;;;;;;;6.63;4.40;;;;;;;;;;6151327;23;20538;-84
2023/06/15 11:39:05;;;;;;;4.70;4.05;;;;;;;;;;6150425;23;20096;-83
2023/06/15 11:41:43;;;;;;;5.82;4.18;;;;;;;;;;6151190;23;20451;-84
2023/06/15 11:44:10;;;;;;;8.68;4.22;;;;;;;;;;6149156;23;20022;-83
2023/06/15 11:46:37;;;;;;;6.65;4.38;;;;;;;;;;6149108;23;20030;-83
2023/06/15 11:49:18;;;;;;;8.65;4.60;;;;;;;;;;6120967;23;20026;-83
2023/06/15 11:51:47;;;;;;;7.10;4.75;;;;;;;;;;6121173;23;20032;-82
2023/06/15 11:54:25;;;;;;;7.10;4.20;;;;;;;;;;6120596;23;20026;-82
2023/06/15 11:57:07;;;;;;;5.28;4.30;;;;;;;;;;6096152;23;20054;-82
2023/06/15 11:59:41;;;;;;;5.57;4.60;;;;;;;;;;6096183;23;20073;-82
2023/06/15 12:02:08;;;;;;;6.28;4.05;;;;;;;;;;6119297;23;20892;-82
2023/06/15 12:04:35;;;;;;;7.93;5.38;;;;;;;;;;6092602;23;20017;-81
2023/06/15 12:07:10;;;;;;;7.95;4.28;;;;;;;;;;6117995;23;20030;-82
2023/06/15 12:09:55;;;;;;;7.40;4.22;;;;;;;;;;6120695;23;20026;-82
2023/06/15 12:12:36;;;;;;;7.45;4.30;;;;;;;;;;6119961;23;20026;-83
2023/06/15 12:15:04;;;;;;;7.07;4.75;;;;;;;;;;6120302;23;20022;-82
2023/06/15 12:17:38;;;;;;;5.28;4.38;;;;;;;;;;6119897;23;20026;-81
2023/06/15 12:20:13;;;;;;;8.05;4.47;;;;;;;;;;6120354;23;20061;-82
2023/06/15 12:22:48;;;;;;;7.82;4.30;;;;;;;;;;6120359;23;20518;-83
2023/06/15 12:25:16;;;;;;;8.43;4.57;;;;;;;;;;6120729;23;20522;-81
2023/06/15 12:27:45;;;;;;;7.28;4.78;;;;;;;;;;6119419;23;20026;-83
2023/06/15 12:30:22;;;;;;;4.95;4.15;;;;;;;;;;6119494;23;20037;-82
2023/06/15 12:32:50;;;;;;;6.35;4.72;;;;;;;;;;6118532;23;20026;-82
2023/06/15 12:35:38;;;;;;;5.97;4.35;;;;;;;;;;6120313;23;20026;-84
2023/06/15 12:38:08;;;;;;;5.75;4.60;;;;;;;;;;6120836;23;20022;-83
2023/06/15 12:40:47;;;;;;;;;;;;;;;;;;6096082;23;20026;-83
2023/06/15 12:43:18;;;;;;;5.80;4.30;;;;;;;;;;6120648;23;19921;-83
2023/06/15 12:45:53;;;;;;;6.10;4.70;;;;;;;;;;6120950;23;20030;-84
2023/06/15 12:48:31;;;;;;;7.93;4.93;;;;;;;;;;6139198;23;20101;-83
2023/06/15 12:51:04;;;;;;;10.75;4.65;;;;;;;;;;6148536;23;20025;-83
2023/06/15 12:53:32;;;;;;;5.78;4.63;;;;;;;;;;6149938;23;20029;-84
2023/06/15 12:56:00;;;;;;;6.22;4.20;;;;;;;;;;6148649;23;20025;-84
2023/06/15 12:58:34;;;;;;;10.90;4.97;;;;;;;;;;6149317;23;20084;-81
2023/06/15 13:01:01;;;;;;;7.13;5.22;;;;;;;;;;6149076;23;20459;-84
2023/06/15 13:03:28;;;;;;;9.23;5.05;;;;;;;;;;6148909;23;20025;-84
2023/06/15 13:06:03;;;;;;;8.98;5.10;;;;;;;;;;6149471;23;20132;-84
2023/06/15 13:08:30;;;;;;;7.60;4.80;;;;;;;;;;6150689;23;20033;-82
2023/06/15 13:11:04;;;;;;;7.97;4.60;;;;;;;;;;6149119;23;20084;-83
2023/06/15 13:13:32;;;;;;;5.78;5.18;;;;;;;;;;6148600;23;20025;-84
2023/06/15 13:15:59;;;;;;;11.57;4.85;;;;;;;;;;6149197;23;20025;-84
2023/06/15 13:18:33;;;;;;;6.97;5.05;;;;;;;;;;6146036;23;20458;-84
2023/06/15 13:21:00;;;;;;;6.82;4.60;;;;;;;;;;6145304;23;20545;-84
2023/06/15 13:23:34;;;;;;;5.97;4.72;;;;;;;;;;6149652;23;20115;-82
2023/06/15 13:26:01;;;;;;;6.57;5.18;;;;;;;;;;6146445;23;20120;-82
2023/06/15 13:28:28;;;;;;;8.35;4.80;;;;;;;;;;6149064;23;20029;-84
2023/06/15 13:31:02;;;;;;;6.32;4.88;;;;;;;;;;6148468;23;20072;-84
2023/06/15 13:33:29;;;;;;;6.50;4.90;;;;;;;;;;6149182;23;20030;-84
2023/06/15 13:36:03;;;;;;;6.88;4.95;;;;;;;;;;6124079;23;20533;-84
2023/06/15 13:38:30;;;;;;;8.60;5.10;;;;;;;;;;6148954;23;20025;-84
2023/06/15 13:40:58;;;;;;;5.32;4.50;;;;;;;;;;6149032;23;20080;-84
2023/06/15 13:43:32;;;;;;;7.60;5.28;;;;;;;;;;6149571;23;20096;-82
2023/06/15 13:45:59;;;;;;;8.25;4.97;;;;;;;;;;6148536;23;20030;-82
2023/06/15 13:48:26;;;;;;;7.40;4.93;;;;;;;;;;6148132;23;20400;-84
2023/06/15 13:51:07;;;;;;;7.05;5.10;;;;;;;;;;6123589;23;20029;-84
2023/06/15 13:53:35;;;;;;;5.95;4.78;;;;;;;;;;6147785;23;20022;-83
2023/06/15 13:56:10;;;;;;;6.22;4.80;;;;;;;;;;6146655;23;20091;-84
2023/06/15 13:58:37;;;;;;;7.00;4.85;;;;;;;;;;6148661;23;20498;-82
2023/06/15 14:01:05;;;;;;;6.70;4.90;;;;;;;;;;6149630;23;20339;-83
2023/06/15 14:03:41;;;;;;;5.70;4.78;;;;;;;;;;6151058;23;20028;-84
2023/06/15 14:06:08;;;;;;;7.50;4.90;;;;;;;;;;6150673;23;20028;-82
2023/06/15 14:08:43;;;;;;;7.25;5.25;;;;;;;;;;6150938;23;20467;-83
2023/06/15 14:11:10;;;;;;;6.53;5.35;;;;;;;;;;6151568;23;20033;-84
2023/06/15 14:13:38;;;;;;;9.95;4.93;;;;;;;;;;6124997;23;20439;-83
2023/06/15 14:16:12;;;;;;;5.28;4.43;;;;;;;;;;6151772;23;20029;-84
2023/06/15 14:18:39;;;;;;;5.28;4.78;;;;;;;;;;6150660;23;20017;-83
2023/06/15 14:21:13;;;;;;;8.27;5.20;;;;;;;;;;6150634;23;20029;-82
2023/06/15 14:23:40;;;;;;;7.70;4.80;;;;;;;;;;6151761;23;20061;-82
2023/06/15 14:26:07;;;;;;;6.70;4.85;;;;;;;;;;6124319;23;20083;-84
2023/06/15 14:28:42;;;;;;;6.13;5.53;;;;;;;;;;6151263;23;20051;-83
2023/06/15 14:31:09;;;;;;;8.98;5.03;;;;;;;;;;6150997;23;20458;-83
2023/06/15 14:33:43;;;;;;;6.13;5.10;;;;;;;;;;6151751;23;20103;-82
2023/06/15 14:36:10;;;;;;;6.88;4.85;;;;;;;;;;6124055;23;20029;-83
2023/06/15 14:38:37;;;;;;;7.03;5.05;;;;;;;;;;6150774;23;20068;-83
2023/06/15 14:41:11;;;;;;;10.73;4.90;;;;;;;;;;6150550;23;20033;-83
2023/06/15 14:43:38;;;;;;;10.05;5.13;;;;;;;;;;6150830;23;20049;-83
2023/06/15 14:46:05;;;;;;;;;;;;;;;;;;6152005;23;20026;-81
2023/06/15 14:48:46;;;;;;;7.65;4.97;;;;;;;;;;6150120;23;19916;-83
2023/06/15 14:51:13;;;;;;;7.85;5.05;;;;;;;;;;6148849;23;20072;-83
2023/06/15 14:53:48;;;;;;;8.48;4.78;;;;;;;;;;6150042;23;20029;-82
2023/06/15 14:56:15;;;;;;;7.95;5.00;;;;;;;;;;6150416;23;20022;-83
2023/06/15 14:58:42;;;;;;;9.63;4.90;;;;;;;;;;6150293;23;20431;-83
2023/06/15 15:01:17;;;;;;;7.47;4.55;;;;;;;;;;6146784;23;20132;-83
2023/06/15 15:03:45;;;;;;;7.90;5.00;;;;;;;;;;6150616;23;20023;-82
2023/06/15 15:06:22;;;;;;;9.48;5.10;;;;;;;;;;6124355;23;20025;-82
2023/06/15 15:08:51;;;;;;;6.78;4.63;;;;;;;;;;6150501;23;20025;-83
2023/06/15 15:11:21;;;;;;;6.40;5.20;;;;;;;;;;6149463;23;20546;-81